createdAt,value
2018-06-24T00:00:38.508Z,15.13
2018-06-24T00:01:38.449Z,15.13
2018-06-24T00:02:38.423Z,15.13
2018-06-24T00:03:38.608Z,15.13
2018-06-24T00:04:38.590Z,15.06
2018-06-24T00:05:38.448Z,15.06
2018-06-24T00:06:38.434Z,15.06
2018-06-24T00:07:38.442Z,15
2018-06-24T00:08:38.523Z,14.94
2018-06-24T00:09:38.432Z,14.87
2018-06-24T00:10:38.474Z,14.81
2018-06-24T00:11:38.453Z,14.69
2018-06-24T00:12:38.443Z,14.63
2018-06-24T00:13:38.476Z,14.5
2018-06-24T00:14:38.517Z,14.44
2018-06-24T00:15:38.470Z,14.38
2018-06-24T00:16:38.605Z,14.31
2018-06-24T00:17:38.447Z,14.38
2018-06-24T00:18:38.531Z,14.38
2018-06-24T00:19:38.487Z,14.38
2018-06-24T00:20:38.447Z,14.44
2018-06-24T00:21:38.539Z,14.38
2018-06-24T00:22:38.443Z,14.38
2018-06-24T00:23:38.482Z,14.44
2018-06-24T00:24:38.457Z,14.5
2018-06-24T00:25:38.451Z,14.5
2018-06-24T00:26:38.441Z,14.56
2018-06-24T00:27:38.440Z,14.56
2018-06-24T00:28:38.511Z,14.56
2018-06-24T00:29:38.471Z,14.56
2018-06-24T00:30:38.564Z,14.63
2018-06-24T00:31:38.612Z,14.63
2018-06-24T00:32:38.438Z,14.63
2018-06-24T00:33:38.423Z,14.63
2018-06-24T00:34:38.570Z,14.63
2018-06-24T00:35:38.467Z,14.63
2018-06-24T00:36:38.441Z,14.63
2018-06-24T00:37:38.438Z,14.63
2018-06-24T00:38:38.467Z,14.69
2018-06-24T00:39:38.460Z,14.69
2018-06-24T00:40:38.460Z,14.69
2018-06-24T00:41:38.489Z,14.69
2018-06-24T00:42:38.448Z,14.75
2018-06-24T00:43:38.489Z,14.75
2018-06-24T00:44:38.447Z,14.69
2018-06-24T00:45:38.457Z,14.75
2018-06-24T00:46:38.476Z,14.75
2018-06-24T00:47:38.475Z,14.75
2018-06-24T00:48:38.478Z,14.75
2018-06-24T00:49:38.459Z,14.75
2018-06-24T00:50:38.476Z,14.75
2018-06-24T00:51:38.433Z,14.75
2018-06-24T00:52:38.450Z,14.75
2018-06-24T00:53:38.568Z,14.75
2018-06-24T00:54:38.452Z,14.69
2018-06-24T00:55:38.460Z,14.75
2018-06-24T00:56:38.443Z,14.75
2018-06-24T00:57:38.479Z,14.69
2018-06-24T00:58:38.444Z,14.63
2018-06-24T00:59:38.479Z,14.63
2018-06-24T01:00:38.498Z,14.63
2018-06-24T01:01:38.459Z,14.44
2018-06-24T01:02:38.481Z,14.44
2018-06-24T01:03:38.453Z,14.44
2018-06-24T01:04:38.636Z,14.44
2018-06-24T01:05:38.481Z,14.44
2018-06-24T01:06:38.454Z,14.44
2018-06-24T01:07:38.460Z,14.44
2018-06-24T01:08:38.451Z,14.5
2018-06-24T01:09:38.468Z,14.44
2018-06-24T01:10:38.490Z,14.5
2018-06-24T01:11:38.456Z,14.5
2018-06-24T01:12:38.471Z,14.56
2018-06-24T01:13:38.543Z,14.56
2018-06-24T01:14:38.468Z,14.56
2018-06-24T01:15:38.539Z,14.63
2018-06-24T01:16:38.465Z,14.63
2018-06-24T01:17:38.463Z,14.63
2018-06-24T01:18:38.545Z,14.63
2018-06-24T01:19:38.478Z,14.56
2018-06-24T01:20:38.467Z,14.56
2018-06-24T01:21:38.469Z,14.56
2018-06-24T01:22:38.464Z,14.63
2018-06-24T01:23:38.634Z,14.56
2018-06-24T01:24:38.585Z,14.5
2018-06-24T01:25:38.477Z,14.56
2018-06-24T01:26:38.496Z,14.5
2018-06-24T01:27:38.491Z,14.5
2018-06-24T01:28:38.610Z,14.5
2018-06-24T01:29:38.453Z,14.44
2018-06-24T01:30:38.510Z,14.5
2018-06-24T01:31:38.461Z,14.5
2018-06-24T01:32:38.452Z,14.5
2018-06-24T01:33:38.546Z,14.5
2018-06-24T01:34:38.628Z,14.44
2018-06-24T01:35:38.534Z,14.44
2018-06-24T01:36:38.474Z,14.44
2018-06-24T01:37:38.654Z,14.44
2018-06-24T01:38:38.532Z,14.38
2018-06-24T01:39:38.454Z,14.38
2018-06-24T01:40:38.477Z,14.38
2018-06-24T01:41:38.477Z,14.38
2018-06-24T01:42:38.482Z,14.38
2018-06-24T01:43:38.491Z,14.31
2018-06-24T01:44:38.611Z,14.38
2018-06-24T01:45:38.513Z,14.38
2018-06-24T01:46:38.502Z,14.31
2018-06-24T01:47:38.868Z,14.38
2018-06-24T01:48:38.509Z,14.31
2018-06-24T01:49:38.503Z,14.31
2018-06-24T01:50:38.480Z,14.31
2018-06-24T01:51:38.481Z,14.25
2018-06-24T01:52:38.755Z,14.25
2018-06-24T01:53:38.514Z,14.19
2018-06-24T01:54:38.690Z,14.19
2018-06-24T01:55:38.519Z,14.19
2018-06-24T01:56:38.636Z,14.19
2018-06-24T01:57:38.554Z,14.19
2018-06-24T01:58:38.546Z,14.19
2018-06-24T01:59:38.507Z,14.19
2018-06-24T02:00:38.489Z,14.19
2018-06-24T02:01:38.482Z,14.25
2018-06-24T02:02:38.483Z,14.25
2018-06-24T02:03:38.485Z,14.19
2018-06-24T02:04:38.493Z,14.25
2018-06-24T02:05:38.501Z,14.19
2018-06-24T02:06:38.508Z,14.19
2018-06-24T02:07:38.505Z,14.13
2018-06-24T02:08:38.485Z,14.13
2018-06-24T02:09:38.494Z,14.13
2018-06-24T02:10:38.495Z,14.13
2018-06-24T02:11:38.561Z,14.06
2018-06-24T02:12:38.482Z,14.06
2018-06-24T02:13:38.505Z,14.06
2018-06-24T02:14:38.479Z,14.06
2018-06-24T02:15:38.676Z,14
2018-06-24T02:16:38.678Z,14.06
2018-06-24T02:17:38.498Z,14
2018-06-24T02:18:38.568Z,14
2018-06-24T02:19:38.529Z,14.06
2018-06-24T02:20:38.550Z,14
2018-06-24T02:21:38.498Z,14
2018-06-24T02:22:38.505Z,14
2018-06-24T02:23:38.655Z,13.94
2018-06-24T02:24:38.545Z,14
2018-06-24T02:25:38.530Z,14
2018-06-24T02:26:38.491Z,13.94
2018-06-24T02:27:38.573Z,13.94
2018-06-24T02:28:38.717Z,13.94
2018-06-24T02:29:38.595Z,13.94
2018-06-24T02:30:38.559Z,13.94
2018-06-24T02:31:38.536Z,13.94
2018-06-24T02:32:38.571Z,13.94
2018-06-24T02:33:38.629Z,13.94
2018-06-24T02:34:38.496Z,13.94
2018-06-24T02:35:38.607Z,13.88
2018-06-24T02:36:38.539Z,13.88
2018-06-24T02:37:38.516Z,13.88
2018-06-24T02:38:38.510Z,13.88
2018-06-24T02:39:38.569Z,13.88
2018-06-24T02:40:38.511Z,13.88
2018-06-24T02:41:38.522Z,13.88
2018-06-24T02:42:38.700Z,13.88
2018-06-24T02:43:38.537Z,13.81
2018-06-24T02:44:38.663Z,13.88
2018-06-24T02:45:38.650Z,13.81
2018-06-24T02:46:38.542Z,13.88
2018-06-24T02:47:38.854Z,13.81
2018-06-24T02:48:38.861Z,13.81
2018-06-24T02:49:38.630Z,13.88
2018-06-24T02:50:38.655Z,13.88
2018-06-24T02:51:38.570Z,13.81
2018-06-24T02:52:38.605Z,13.81
2018-06-24T02:53:39.086Z,13.81
2018-06-24T02:54:38.517Z,13.81
2018-06-24T02:55:38.545Z,13.81
2018-06-24T02:56:38.534Z,13.81
2018-06-24T02:57:38.536Z,13.75
2018-06-24T02:58:38.571Z,13.69
2018-06-24T02:59:38.538Z,13.75
2018-06-24T03:00:38.574Z,13.69
2018-06-24T03:01:38.550Z,13.75
2018-06-24T03:02:38.678Z,13.69
2018-06-24T03:03:38.594Z,13.69
2018-06-24T03:04:38.723Z,13.69
2018-06-24T03:05:38.575Z,13.69
2018-06-24T03:06:38.516Z,13.75
2018-06-24T03:07:38.517Z,13.69
2018-06-24T03:08:38.553Z,13.69
2018-06-24T03:09:38.520Z,13.69
2018-06-24T03:10:38.553Z,13.69
2018-06-24T03:11:38.520Z,13.69
2018-06-24T03:12:38.529Z,13.69
2018-06-24T03:13:38.552Z,13.69
2018-06-24T03:14:38.551Z,13.69
2018-06-24T03:15:38.556Z,13.75
2018-06-24T03:16:38.583Z,13.69
2018-06-24T03:17:38.542Z,13.69
2018-06-24T03:18:38.549Z,13.75
2018-06-24T03:19:38.537Z,13.69
2018-06-24T03:20:38.533Z,13.75
2018-06-24T03:21:38.543Z,13.75
2018-06-24T03:22:38.525Z,13.75
2018-06-24T03:23:38.549Z,13.75
2018-06-24T03:24:38.560Z,13.75
2018-06-24T03:25:38.565Z,13.81
2018-06-24T03:26:38.661Z,13.75
2018-06-24T03:27:38.745Z,13.81
2018-06-24T03:28:38.557Z,13.81
2018-06-24T03:29:38.562Z,13.75
2018-06-24T03:30:38.551Z,13.81
2018-06-24T03:31:38.583Z,13.81
2018-06-24T03:32:38.532Z,13.81
2018-06-24T03:33:38.538Z,13.88
2018-06-24T03:34:38.538Z,13.81
2018-06-24T03:35:38.539Z,13.81
2018-06-24T03:36:38.548Z,13.75
2018-06-24T03:37:38.539Z,13.81
2018-06-24T03:38:38.546Z,13.75
2018-06-24T03:39:38.575Z,13.81
2018-06-24T03:40:38.540Z,13.81
2018-06-24T03:41:38.544Z,13.75
2018-06-24T03:42:38.547Z,13.75
2018-06-24T03:43:38.532Z,13.75
2018-06-24T03:44:38.564Z,13.75
2018-06-24T03:45:38.544Z,13.81
2018-06-24T03:46:38.572Z,13.75
2018-06-24T03:47:38.539Z,13.81
2018-06-24T03:48:38.534Z,13.75
2018-06-24T03:49:38.660Z,13.75
2018-06-24T03:50:38.565Z,13.75
2018-06-24T03:51:38.755Z,13.69
2018-06-24T03:52:38.634Z,13.69
2018-06-24T03:53:38.580Z,13.69
2018-06-24T03:54:38.541Z,13.69
2018-06-24T03:55:38.695Z,13.62
2018-06-24T03:56:38.569Z,13.62
2018-06-24T03:57:38.553Z,13.69
2018-06-24T03:58:38.723Z,13.62
2018-06-24T03:59:38.581Z,13.62
2018-06-24T04:00:38.549Z,13.62
2018-06-24T04:01:38.645Z,13.62
2018-06-24T04:02:38.742Z,13.62
2018-06-24T04:03:38.594Z,13.62
2018-06-24T04:04:38.932Z,13.69
2018-06-24T04:05:38.577Z,13.69
2018-06-24T04:06:38.624Z,13.75
2018-06-24T04:07:38.558Z,13.69
2018-06-24T04:08:38.617Z,13.69
2018-06-24T04:09:38.650Z,13.75
2018-06-24T04:10:38.584Z,13.75
2018-06-24T04:11:38.691Z,13.75
2018-06-24T04:12:38.618Z,13.75
2018-06-24T04:13:38.627Z,13.81
2018-06-24T04:14:38.577Z,13.75
2018-06-24T04:15:38.578Z,13.81
2018-06-24T04:16:38.590Z,13.75
2018-06-24T04:17:38.602Z,13.81
2018-06-24T04:18:38.571Z,13.75
2018-06-24T04:19:38.574Z,13.81
2018-06-24T04:20:38.559Z,13.81
2018-06-24T04:21:38.570Z,13.88
2018-06-24T04:22:38.576Z,13.88
2018-06-24T04:23:38.557Z,13.88
2018-06-24T04:24:38.549Z,13.94
2018-06-24T04:25:38.945Z,13.88
2018-06-24T04:26:38.553Z,14
2018-06-24T04:27:38.576Z,13.94
2018-06-24T04:28:38.615Z,14
2018-06-24T04:29:38.558Z,14
2018-06-24T04:30:38.559Z,14
2018-06-24T04:31:38.573Z,14
2018-06-24T04:32:38.598Z,14
2018-06-24T04:33:38.596Z,14.06
2018-06-24T04:34:38.642Z,14
2018-06-24T04:35:38.670Z,14
2018-06-24T04:36:38.714Z,14.06
2018-06-24T04:37:38.608Z,14.06
2018-06-24T04:38:38.605Z,14.06
2018-06-24T04:39:38.575Z,14.13
2018-06-24T04:40:38.565Z,14.13
2018-06-24T04:41:38.615Z,14.19
2018-06-24T04:42:38.632Z,14.19
2018-06-24T04:43:38.571Z,14.19
2018-06-24T04:44:38.623Z,14.25
2018-06-24T04:45:38.585Z,14.25
2018-06-24T04:46:38.604Z,14.25
2018-06-24T04:47:38.633Z,14.25
2018-06-24T04:48:38.602Z,14.25
2018-06-24T04:49:38.581Z,14.31
2018-06-24T04:50:38.588Z,14.31
2018-06-24T04:51:38.988Z,14.31
2018-06-24T04:52:38.761Z,14.38
2018-06-24T04:53:38.583Z,14.38
2018-06-24T04:54:38.615Z,14.38
2018-06-24T04:55:38.623Z,14.38
2018-06-24T04:56:38.749Z,14.38
2018-06-24T04:57:38.608Z,14.38
2018-06-24T04:58:38.587Z,14.38
2018-06-24T04:59:38.613Z,14.44
2018-06-24T05:00:38.628Z,14.44
2018-06-24T05:01:38.575Z,14.44
2018-06-24T05:02:38.586Z,14.44
2018-06-24T05:03:38.667Z,14.5
2018-06-24T05:04:38.603Z,14.5
2018-06-24T05:05:38.645Z,14.5
2018-06-24T05:06:38.598Z,14.5
2018-06-24T05:07:38.672Z,14.5
2018-06-24T05:08:38.597Z,14.56
2018-06-24T05:09:38.607Z,14.56
2018-06-24T05:10:38.671Z,14.56
2018-06-24T05:11:38.650Z,14.63
2018-06-24T05:12:38.860Z,14.63
2018-06-24T05:13:38.698Z,14.69
2018-06-24T05:14:38.676Z,14.69
2018-06-24T05:15:38.749Z,14.69
2018-06-24T05:16:38.660Z,14.69
2018-06-24T05:17:38.746Z,14.75
2018-06-24T05:18:38.660Z,14.75
2018-06-24T05:19:38.636Z,14.75
2018-06-24T05:20:38.661Z,14.81
2018-06-24T05:21:38.614Z,14.75
2018-06-24T05:22:38.705Z,14.81
2018-06-24T05:23:38.618Z,14.81
2018-06-24T05:24:38.663Z,14.81
2018-06-24T05:25:38.634Z,14.87
2018-06-24T05:26:38.648Z,14.87
2018-06-24T05:27:39.693Z,14.87
2018-06-24T05:28:38.598Z,14.94
2018-06-24T05:29:38.596Z,14.94
2018-06-24T05:30:38.607Z,15
2018-06-24T05:31:38.638Z,15
2018-06-24T05:32:38.635Z,15.06
2018-06-24T05:33:38.610Z,15.06
2018-06-24T05:34:38.624Z,15
2018-06-24T05:35:38.804Z,15.13
2018-06-24T05:36:38.704Z,15.06
2018-06-24T05:37:38.651Z,15.13
2018-06-24T05:38:38.610Z,15.13
2018-06-24T05:39:38.628Z,15.19
2018-06-24T05:40:38.642Z,15.19
2018-06-24T05:41:38.676Z,15.19
2018-06-24T05:42:38.624Z,15.25
2018-06-24T05:43:38.643Z,15.25
2018-06-24T05:44:38.634Z,15.25
2018-06-24T05:45:38.622Z,15.31
2018-06-24T05:46:38.611Z,15.25
2018-06-24T05:47:38.632Z,15.31
2018-06-24T05:48:38.625Z,15.31
2018-06-24T05:49:38.593Z,15.38
2018-06-24T05:50:38.825Z,15.38
2018-06-24T05:51:38.628Z,15.38
2018-06-24T05:52:38.675Z,15.44
2018-06-24T05:53:38.645Z,15.44
2018-06-24T05:54:38.651Z,15.44
2018-06-24T05:55:38.641Z,15.5
2018-06-24T05:56:38.994Z,15.5
2018-06-24T05:57:38.649Z,15.5
2018-06-24T05:58:38.833Z,15.5
2018-06-24T05:59:38.654Z,15.5
2018-06-24T06:00:38.651Z,15.5
2018-06-24T06:01:38.692Z,15.5
2018-06-24T06:02:38.638Z,15.5
2018-06-24T06:03:38.637Z,15.5
2018-06-24T06:04:38.738Z,15.56
2018-06-24T06:05:38.673Z,15.5
2018-06-24T06:06:38.666Z,15.5
2018-06-24T06:07:38.647Z,15.5
2018-06-24T06:08:38.822Z,15.56
2018-06-24T06:09:38.690Z,15.63
2018-06-24T06:10:38.672Z,15.63
2018-06-24T06:11:38.651Z,15.63
2018-06-24T06:12:38.847Z,15.63
2018-06-24T06:13:38.638Z,15.63
2018-06-24T06:14:38.650Z,15.63
2018-06-24T06:15:38.668Z,15.63
2018-06-24T06:16:38.615Z,15.63
2018-06-24T06:17:38.735Z,15.63
2018-06-24T06:18:38.634Z,15.69
2018-06-24T06:19:38.652Z,15.69
2018-06-24T06:20:38.634Z,15.75
2018-06-24T06:21:38.964Z,15.75
2018-06-24T06:22:38.636Z,15.75
2018-06-24T06:23:38.617Z,15.81
2018-06-24T06:24:38.735Z,15.81
2018-06-24T06:25:38.655Z,15.75
2018-06-24T06:26:38.775Z,15.81
2018-06-24T06:27:38.640Z,15.75
2018-06-24T06:28:38.683Z,15.75
2018-06-24T06:29:38.677Z,15.81
2018-06-24T06:30:38.685Z,15.75
2018-06-24T06:31:38.634Z,15.69
2018-06-24T06:32:38.652Z,15.75
2018-06-24T06:33:39.146Z,15.75
2018-06-24T06:34:38.696Z,15.75
2018-06-24T06:35:38.660Z,15.81
2018-06-24T06:36:38.708Z,15.75
2018-06-24T06:37:38.719Z,15.81
2018-06-24T06:38:38.667Z,15.81
2018-06-24T06:39:38.643Z,15.81
2018-06-24T06:40:38.693Z,15.88
2018-06-24T06:41:38.657Z,15.88
2018-06-24T06:42:38.725Z,15.88
2018-06-24T06:43:38.678Z,15.94
2018-06-24T06:44:38.647Z,16
2018-06-24T06:45:41.491Z,16
2018-06-24T06:46:38.653Z,16.06
2018-06-24T06:47:38.646Z,16.06
2018-06-24T06:48:38.614Z,16.06
2018-06-24T06:49:38.644Z,16
2018-06-24T06:50:38.660Z,16.06
2018-06-24T06:51:38.669Z,16.06
2018-06-24T06:52:38.641Z,16.06
2018-06-24T06:53:38.664Z,16.12
2018-06-24T06:54:38.650Z,16.12
2018-06-24T06:55:38.646Z,16.06
2018-06-24T06:56:38.650Z,16.12
2018-06-24T06:57:38.653Z,16.12
2018-06-24T06:58:38.685Z,16.06
2018-06-24T06:59:38.675Z,16.12
2018-06-24T07:00:38.678Z,16.19
2018-06-24T07:01:38.700Z,16.12
2018-06-24T07:02:38.843Z,16.12
2018-06-24T07:03:38.801Z,16.12
2018-06-24T07:04:38.668Z,16.12
2018-06-24T07:05:39.823Z,16.12
2018-06-24T07:06:38.727Z,16.12
2018-06-24T07:07:38.818Z,16.19
2018-06-24T07:08:38.667Z,16.19
2018-06-24T07:09:38.660Z,16.19
2018-06-24T07:10:38.671Z,16.19
2018-06-24T07:11:38.810Z,16.19
2018-06-24T07:12:38.882Z,16.25
2018-06-24T07:13:38.785Z,16.25
2018-06-24T07:14:39.070Z,16.25
2018-06-24T07:15:38.792Z,16.31
2018-06-24T07:16:38.708Z,16.31
2018-06-24T07:17:38.733Z,16.31
2018-06-24T07:18:38.728Z,16.37
2018-06-24T07:19:38.760Z,16.31
2018-06-24T07:20:38.713Z,16.37
2018-06-24T07:21:38.708Z,16.37
2018-06-24T07:22:38.756Z,16.37
2018-06-24T07:23:38.724Z,16.37
2018-06-24T07:24:38.770Z,16.37
2018-06-24T07:25:38.769Z,16.44
2018-06-24T07:26:38.772Z,16.44
2018-06-24T07:27:39.194Z,16.5
2018-06-24T07:28:38.798Z,16.5
2018-06-24T07:29:38.779Z,16.44
2018-06-24T07:30:38.780Z,16.5
2018-06-24T07:31:38.808Z,16.5
2018-06-24T07:32:38.786Z,16.5
2018-06-24T07:33:40.667Z,16.5
2018-06-24T07:34:38.889Z,16.5
2018-06-24T07:35:38.859Z,16.56
2018-06-24T07:36:38.813Z,16.5
2018-06-24T07:37:38.798Z,16.56
2018-06-24T07:38:39.304Z,16.62
2018-06-24T07:39:39.027Z,16.56
2018-06-24T07:40:38.873Z,16.62
2018-06-24T07:41:38.852Z,16.69
2018-06-24T07:42:38.881Z,16.69
2018-06-24T07:43:38.877Z,16.75
2018-06-24T07:44:38.843Z,16.75
2018-06-24T07:45:38.865Z,16.81
2018-06-24T07:46:38.851Z,16.81
2018-06-24T07:47:39.039Z,16.81
2018-06-24T07:48:38.859Z,16.87
2018-06-24T07:49:38.879Z,16.87
2018-06-24T07:50:38.913Z,16.81
2018-06-24T07:51:38.937Z,16.87
2018-06-24T07:52:38.887Z,16.81
2018-06-24T07:53:38.930Z,16.87
2018-06-24T07:54:38.974Z,16.94
2018-06-24T07:55:38.953Z,16.94
2018-06-24T07:56:38.953Z,17
2018-06-24T07:57:38.976Z,16.94
2018-06-24T07:58:38.842Z,17
2018-06-24T07:59:38.837Z,17
2018-06-24T08:00:38.844Z,17
2018-06-24T08:01:38.838Z,17.06
2018-06-24T08:02:38.859Z,17.06
2018-06-24T08:03:38.840Z,17.12
2018-06-24T08:04:38.862Z,17.12
2018-06-24T08:05:38.868Z,17.19
2018-06-24T08:06:38.851Z,17.19
2018-06-24T08:07:38.869Z,17.19
2018-06-24T08:08:38.877Z,17.19
2018-06-24T08:09:38.953Z,17.25
2018-06-24T08:10:38.886Z,17.25
2018-06-24T08:11:38.872Z,17.31
2018-06-24T08:12:38.884Z,17.25
2018-06-24T08:13:40.127Z,17.31
2018-06-24T08:14:38.904Z,17.25
2018-06-24T08:15:39.042Z,17.25
2018-06-24T08:16:38.982Z,17.25
2018-06-24T08:17:39.028Z,17.25
2018-06-24T08:18:39.001Z,17.25
2018-06-24T08:19:39.013Z,17.25
2018-06-24T08:20:38.941Z,17.25
2018-06-24T08:21:38.829Z,17.25
2018-06-24T08:22:39.294Z,17.25
2018-06-24T08:23:38.889Z,17.25
2018-06-24T08:24:38.913Z,17.31
2018-06-24T08:25:38.869Z,17.31
2018-06-24T08:26:39.040Z,17.31
2018-06-24T08:27:38.873Z,17.31
2018-06-24T08:28:38.849Z,17.37
2018-06-24T08:29:38.967Z,17.44
2018-06-24T08:30:38.905Z,17.44
2018-06-24T08:31:39.626Z,17.44
2018-06-24T08:32:38.997Z,17.37
2018-06-24T08:33:38.888Z,17.37
2018-06-24T08:34:38.847Z,17.37
2018-06-24T08:35:40.097Z,17.44
2018-06-24T08:36:38.920Z,17.44
2018-06-24T08:37:38.873Z,17.44
2018-06-24T08:38:43.043Z,17.44
2018-06-24T08:39:39.038Z,17.5
2018-06-24T08:40:38.733Z,17.56
2018-06-24T08:41:38.979Z,17.56
2018-06-24T08:42:39.076Z,17.62
2018-06-24T08:43:39.038Z,17.56
2018-06-24T08:44:39.108Z,17.62
2018-06-24T08:45:38.737Z,17.62
2018-06-24T08:46:39.387Z,17.69
2018-06-24T08:47:39.255Z,17.69
2018-06-24T08:48:38.738Z,17.69
2018-06-24T08:49:38.753Z,17.75
2018-06-24T08:50:39.048Z,17.69
2018-06-24T08:51:38.745Z,17.69
2018-06-24T08:52:39.046Z,17.69
2018-06-24T08:53:39.091Z,17.69
2018-06-24T08:54:39.061Z,17.69
2018-06-24T08:55:38.728Z,17.69
2018-06-24T08:56:39.079Z,17.69
2018-06-24T08:57:39.077Z,17.75
2018-06-24T08:58:39.101Z,17.69
2018-06-24T08:59:38.739Z,17.75
2018-06-24T09:00:39.273Z,17.81
2018-06-24T09:01:38.883Z,17.75
2018-06-24T09:02:38.882Z,17.81
2018-06-24T09:03:38.726Z,17.81
2018-06-24T09:04:38.790Z,17.87
2018-06-24T09:05:38.905Z,17.87
2018-06-24T09:06:38.925Z,17.81
2018-06-24T09:07:38.927Z,17.87
2018-06-24T09:08:38.842Z,17.87
2018-06-24T09:09:38.740Z,17.87
2018-06-24T09:10:38.744Z,17.94
2018-06-24T09:11:38.842Z,17.87
2018-06-24T09:12:38.750Z,17.87
2018-06-24T09:13:39.313Z,17.87
2018-06-24T09:14:39.888Z,17.87
2018-06-24T09:15:41.638Z,17.87
2018-06-24T09:16:38.803Z,17.87
2018-06-24T09:17:38.906Z,17.94
2018-06-24T09:18:38.834Z,17.94
2018-06-24T09:19:38.918Z,17.94
2018-06-24T09:20:38.933Z,18
2018-06-24T09:21:38.898Z,17.94
2018-06-24T09:22:38.930Z,17.94
2018-06-24T09:23:38.937Z,18
2018-06-24T09:24:38.935Z,18.06
2018-06-24T09:25:38.940Z,18.06
2018-06-24T09:26:41.003Z,18.06
2018-06-24T09:27:39.787Z,18.06
2018-06-24T09:28:38.759Z,18.12
2018-06-24T09:29:38.971Z,18.12
2018-06-24T09:30:38.978Z,18.06
2018-06-24T09:31:38.778Z,18.06
2018-06-24T09:32:38.980Z,18.06
2018-06-24T09:33:38.903Z,18.06
2018-06-24T09:34:38.761Z,18.06
2018-06-24T09:35:38.910Z,18.12
2018-06-24T09:36:38.757Z,18.19
2018-06-24T09:37:38.807Z,18.12
2018-06-24T09:39:38.939Z,18.12
2018-06-24T09:40:38.805Z,18.06
2018-06-24T09:41:38.953Z,18.06
2018-06-24T09:42:38.904Z,18.12
2018-06-24T09:43:38.846Z,18.19
2018-06-24T09:44:38.862Z,18.19
2018-06-24T09:45:38.773Z,18.19
2018-06-24T09:46:38.822Z,18.25
2018-06-24T09:47:38.929Z,18.31
2018-06-24T09:48:38.756Z,18.37
2018-06-24T09:49:38.881Z,18.44
2018-06-24T09:50:38.894Z,18.44
2018-06-24T09:51:38.854Z,18.44
2018-06-24T09:52:38.925Z,18.5
2018-06-24T09:53:38.829Z,18.5
2018-06-24T09:54:38.887Z,18.56
2018-06-24T09:55:38.820Z,18.62
2018-06-24T09:56:38.918Z,18.62
2018-06-24T09:57:38.772Z,18.69
2018-06-24T09:58:38.842Z,18.69
2018-06-24T09:59:38.884Z,18.75
2018-06-24T10:00:39.507Z,18.75
2018-06-24T10:01:38.878Z,18.81
2018-06-24T10:02:38.875Z,18.87
2018-06-24T10:03:38.893Z,18.87
2018-06-24T10:04:39.739Z,18.87
2018-06-24T10:05:39.016Z,18.87
2018-06-24T10:06:38.866Z,18.87
2018-06-24T10:07:38.824Z,18.87
2018-06-24T10:08:38.927Z,18.81
2018-06-24T10:09:38.849Z,18.75
2018-06-24T10:10:38.893Z,18.81
2018-06-24T10:11:39.047Z,18.87
2018-06-24T10:12:38.965Z,18.87
2018-06-24T10:13:38.836Z,18.87
2018-06-24T10:14:39.141Z,18.94
2018-06-24T10:15:39.017Z,18.94
2018-06-24T10:16:38.968Z,18.94
2018-06-24T10:17:39.004Z,18.94
2018-06-24T10:18:39.661Z,18.87
2018-06-24T10:19:46.900Z,18.87
2018-06-24T10:20:46.327Z,18.87
2018-06-24T10:21:38.945Z,18.87
2018-06-24T10:22:38.915Z,18.87
2018-06-24T10:23:38.923Z,18.87
2018-06-24T10:24:39.775Z,18.81
2018-06-24T10:25:39.027Z,18.81
2018-06-24T10:26:39.192Z,18.75
2018-06-24T10:27:39.103Z,18.81
2018-06-24T10:28:39.018Z,18.81
2018-06-24T10:29:39.018Z,18.81
2018-06-24T10:30:38.949Z,18.81
2018-06-24T10:31:39.057Z,18.81
2018-06-24T10:32:39.108Z,18.87
2018-06-24T10:33:38.951Z,18.94
2018-06-24T10:34:39.071Z,19
2018-06-24T10:35:39.109Z,18.94
2018-06-24T10:36:39.012Z,19
2018-06-24T10:37:38.914Z,19.06
2018-06-24T10:38:39.039Z,19.06
2018-06-24T10:39:39.140Z,19.19
2018-06-24T10:40:38.953Z,19.25
2018-06-24T10:41:38.999Z,19.25
2018-06-24T10:42:38.934Z,19.37
2018-06-24T10:43:39.065Z,19.44
2018-06-24T10:44:38.960Z,19.37
2018-06-24T10:45:38.938Z,19.31
2018-06-24T10:46:39.186Z,19.44
2018-06-24T10:47:38.997Z,19.5
2018-06-24T10:48:39.052Z,19.62
2018-06-24T10:49:39.039Z,19.81
2018-06-24T10:50:38.965Z,19.69
2018-06-24T10:51:38.960Z,19.69
2018-06-24T10:52:38.997Z,19.69
2018-06-24T10:53:38.967Z,19.69
2018-06-24T10:54:38.998Z,19.69
2018-06-24T10:55:39.007Z,19.62
2018-06-24T10:56:39.027Z,19.69
2018-06-24T10:57:38.975Z,19.75
2018-06-24T10:58:39.125Z,19.69
2018-06-24T10:59:39.021Z,19.69
2018-06-24T11:00:38.871Z,19.69
2018-06-24T11:01:38.922Z,19.69
2018-06-24T11:02:39.104Z,19.69
2018-06-24T11:03:38.885Z,19.69
2018-06-24T11:04:38.841Z,19.62
2018-06-24T11:05:38.921Z,19.62
2018-06-24T11:06:38.812Z,19.69
2018-06-24T11:07:38.846Z,19.69
2018-06-24T11:08:39.073Z,19.87
2018-06-24T11:09:38.989Z,19.81
2018-06-24T11:10:38.851Z,19.87
2018-06-24T11:11:38.991Z,19.87
2018-06-24T11:12:38.834Z,19.94
2018-06-24T11:13:38.820Z,20
2018-06-24T11:14:38.880Z,20
2018-06-24T11:15:38.822Z,20
2018-06-24T11:16:38.810Z,20
2018-06-24T11:17:40.039Z,20.06
2018-06-24T11:18:38.814Z,20.12
2018-06-24T11:19:38.800Z,20.06
2018-06-24T11:20:39.065Z,20.19
2018-06-24T11:21:38.835Z,20.19
2018-06-24T11:22:38.883Z,20.06
2018-06-24T11:23:38.970Z,20.19
2018-06-24T11:24:38.859Z,20.19
2018-06-24T11:25:38.836Z,20.19
2018-06-24T11:26:39.075Z,20.25
2018-06-24T11:27:38.825Z,20.31
2018-06-24T11:28:38.975Z,20.37
2018-06-24T11:29:39.126Z,20.31
2018-06-24T11:30:38.987Z,20.31
2018-06-24T11:31:38.836Z,20.37
2018-06-24T11:32:39.209Z,20.37
2018-06-24T11:33:38.820Z,20.31
2018-06-24T11:34:38.822Z,20.31
2018-06-24T11:35:38.940Z,20.25
2018-06-24T11:36:38.829Z,20.25
2018-06-24T11:37:38.837Z,20.25
2018-06-24T11:38:39.038Z,20.19
2018-06-24T11:39:38.949Z,20.12
2018-06-24T11:40:38.839Z,20.12
2018-06-24T11:41:40.023Z,20.12
2018-06-24T11:42:38.892Z,20.19
2018-06-24T11:43:38.918Z,20.06
2018-06-24T11:44:38.996Z,20.06
2018-06-24T11:45:38.852Z,20.12
2018-06-24T11:46:38.876Z,20.19
2018-06-24T11:47:38.988Z,20.25
2018-06-24T11:48:38.842Z,20.31
2018-06-24T11:49:38.861Z,20.44
2018-06-24T11:50:38.938Z,20.44
2018-06-24T11:51:38.845Z,20.5
2018-06-24T11:52:38.867Z,20.56
2018-06-24T11:53:38.986Z,20.5
2018-06-24T11:54:38.852Z,20.5
2018-06-24T11:55:38.858Z,20.5
2018-06-24T11:56:39.323Z,20.56
2018-06-24T11:57:38.891Z,20.56
2018-06-24T11:58:38.909Z,20.56
2018-06-24T11:59:39.334Z,20.56
2018-06-24T12:00:38.907Z,20.5
2018-06-24T12:01:38.870Z,20.5
2018-06-24T12:02:39.537Z,20.56
2018-06-24T12:03:38.919Z,20.56
2018-06-24T12:04:38.873Z,20.37
2018-06-24T12:05:39.032Z,20.5
2018-06-24T12:06:38.846Z,20.56
2018-06-24T12:07:38.879Z,20.56
2018-06-24T12:08:39.328Z,20.69
2018-06-24T12:09:39.003Z,20.69
2018-06-24T12:10:38.868Z,20.69
2018-06-24T12:11:39.412Z,20.75
2018-06-24T12:12:38.884Z,20.75
2018-06-24T12:13:39.021Z,20.81
2018-06-24T12:14:39.414Z,20.88
2018-06-24T12:15:38.854Z,20.94
2018-06-24T12:16:38.965Z,20.94
2018-06-24T12:17:39.002Z,20.94
2018-06-24T12:18:38.941Z,21
2018-06-24T12:19:38.881Z,21
2018-06-24T12:20:39.022Z,21.12
2018-06-24T12:21:38.934Z,21.12
2018-06-24T12:22:38.881Z,21.12
2018-06-24T12:23:41.406Z,21.12
2018-06-24T12:24:38.868Z,21.19
2018-06-24T12:25:38.887Z,21.19
2018-06-24T12:26:39.024Z,21.12
2018-06-24T12:27:38.873Z,21.06
2018-06-24T12:28:38.904Z,21.06
2018-06-24T12:29:38.887Z,21.12
2018-06-24T12:30:39.427Z,21.12
2018-06-24T12:31:38.860Z,21.19
2018-06-24T12:32:39.114Z,21.25
2018-06-24T12:33:38.916Z,21.31
2018-06-24T12:34:38.880Z,21.25
2018-06-24T12:35:38.870Z,21.31
2018-06-24T12:36:38.884Z,21.25
2018-06-24T12:37:38.889Z,21.25
2018-06-24T12:38:39.053Z,21.19
2018-06-24T12:39:39.028Z,21.19
2018-06-24T12:40:38.927Z,21.06
2018-06-24T12:41:39.008Z,21.06
2018-06-24T12:42:38.909Z,21.06
2018-06-24T12:43:38.892Z,21.06
2018-06-24T12:44:39.071Z,21.06
2018-06-24T12:45:38.896Z,21
2018-06-24T12:46:38.923Z,21
2018-06-24T12:47:38.917Z,21
2018-06-24T12:48:39.089Z,21
2018-06-24T12:49:38.909Z,21
2018-06-24T12:50:39.071Z,21.06
2018-06-24T12:51:38.970Z,21.06
2018-06-24T12:52:39.439Z,21.06
2018-06-24T12:53:39.063Z,21.06
2018-06-24T12:54:38.985Z,21.12
2018-06-24T12:55:38.936Z,21.12
2018-06-24T12:56:38.898Z,21.19
2018-06-24T12:57:38.980Z,21.19
2018-06-24T12:58:39.591Z,21.19
2018-06-24T12:59:42.485Z,21.25